Time;durP1;ratioP1;P1;durP2;ratioP2;P2;SDS_P1;SDS_P2;PMS_P1;PMS_P2;Temp;Humidity;BMP_temperature;BMP_pressure;BME280_temperature;BME280_humidity;BME280_pressure;Samples;Min_cycle;Max_cycle;Signal;HPM_P1;HPM_P2
2021/11/24 00:00:21;;;;;;;;;;;7.30;99.90;;;;;;5084027;28;19925;-84
2021/11/24 00:02:50;;;;;;;;;;;7.70;99.90;;;;;;5084362;28;20007;-86
2021/11/24 00:05:17;;;;;;;;;;;7.30;99.90;;;;;;5081323;28;19931;-86
2021/11/24 00:07:44;;;;;;;;;;;7.40;99.90;;;;;;5078809;28;19924;-84
2021/11/24 00:10:12;;;;;;;;;;;7.40;99.90;;;;;;5078791;28;19924;-85
2021/11/24 00:12:41;;;;;;;;;;;7.40;99.90;;;;;;5079267;28;19974;-85
2021/11/24 00:15:08;;;;;;;;;;;7.30;99.90;;;;;;5082116;28;19928;-84
2021/11/24 00:17:35;;;;;;;;;;;7.30;99.90;;;;;;5084301;28;19992;-85
2021/11/24 00:20:02;;;;;;;;;;;7.30;99.90;;;;;;5082728;28;20355;-85
2021/11/24 00:22:29;;;;;;;;;;;7.30;99.90;;;;;;5078491;28;19935;-85
2021/11/24 00:24:56;;;;;;;;;;;7.30;99.90;;;;;;5078045;28;19925;-85
2021/11/24 00:27:25;;;;;;;;;;;7.20;99.90;;;;;;5104532;22;19924;-83
2021/11/24 00:29:55;;;;;;;;;;;7.20;99.90;;;;;;5078174;28;19925;-83
2021/11/24 00:32:21;;;;;;;;;;;6.90;99.90;;;;;;5078297;28;19925;-81
2021/11/24 00:34:48;;;;;;;;;;;7.20;99.90;;;;;;5077793;28;19972;-80
2021/11/24 00:37:15;;;;;;;;;;;7.20;99.90;;;;;;5078482;28;19956;-81
2021/11/24 00:39:42;;;;;;;;;;;7.20;99.90;;;;;;5057965;28;20454;-81
2021/11/24 00:42:09;;;;;;;;;;;7.00;99.90;;;;;;5062465;28;19931;-82
2021/11/24 00:44:35;;;;;;;;;;;7.20;99.90;;;;;;5075205;28;19976;-80
2021/11/24 00:47:04;;;;;;;;;;;7.20;99.90;;;;;;5074959;28;19963;-81
2021/11/24 00:49:30;;;;;;;;;;;7.20;99.90;;;;;;5073717;28;20429;-78
2021/11/24 00:51:57;;;;;;;;;;;7.20;99.90;;;;;;5070996;28;20400;-82
2021/11/24 00:54:24;;;;;;;;;;;7.10;99.90;;;;;;5061476;28;19971;-83
2021/11/24 00:56:52;;;;;;;;;;;7.20;99.90;;;;;;5059929;28;20042;-82
2021/11/24 00:59:18;;;;;;;;;;;7.20;99.90;;;;;;5058997;28;19925;-82
2021/11/24 01:01:45;;;;;;;;;;;7.20;99.90;;;;;;5061294;28;20008;-82
2021/11/24 01:04:13;;;;;;;;;;;7.10;99.90;;;;;;5059377;28;20008;-82
2021/11/24 01:06:40;;;;;;;;;;;7.20;99.90;;;;;;5061070;28;19940;-82
2021/11/24 01:09:06;;;;;;;;;;;7.20;99.90;;;;;;5064440;28;19924;-82
2021/11/24 01:11:33;;;;;;;;;;;7.20;99.90;;;;;;5064756;28;19964;-80
2021/11/24 01:14:00;;;;;;;;;;;7.20;99.90;;;;;;5074565;28;19928;-81
2021/11/24 01:16:27;;;;;;;;;;;7.20;99.90;;;;;;5073660;28;19971;-79
2021/11/24 01:18:53;;;;;;;;;;;7.10;99.90;;;;;;5074219;28;19964;-79
2021/11/24 01:21:21;;;;;;;;;;;7.10;99.90;;;;;;5077693;28;19947;-80
2021/11/24 01:23:48;;;;;;;;;;;7.10;99.90;;;;;;5074542;28;19988;-78
2021/11/24 01:26:15;;;;;;;;;;;7.20;99.90;;;;;;5075254;28;19925;-81
2021/11/24 01:28:42;;;;;;;;;;;7.20;99.90;;;;;;5074578;28;19964;-80
2021/11/24 01:31:09;;;;;;;;;;;7.20;99.90;;;;;;5073431;28;19980;-81
2021/11/24 01:33:35;;;;;;;;;;;7.10;99.90;;;;;;5077369;28;19932;-81
2021/11/24 01:36:02;;;;;;;;;;;7.20;99.90;;;;;;5074887;28;19931;-79
2021/11/24 01:38:31;;;;;;;;;;;7.20;99.90;;;;;;5069964;28;19976;-82
2021/11/24 01:40:57;;;;;;;;;;;7.10;99.90;;;;;;5065301;28;20012;-82
2021/11/24 01:43:24;;;;;;;;;;;7.20;99.90;;;;;;5063235;28;19932;-81
2021/11/24 01:45:51;;;;;;;;;;;7.20;99.90;;;;;;5075638;28;19925;-82
2021/11/24 01:48:17;;;;;;;;;;;7.20;99.90;;;;;;5080070;28;19913;-80
2021/11/24 01:50:44;;;;;;;;;;;7.20;99.90;;;;;;5067219;28;19963;-82
2021/11/24 01:53:11;;;;;;;;;;;7.10;99.90;;;;;;5073234;28;19992;-82
2021/11/24 01:55:39;;;;;;;;;;;7.40;99.90;;;;;;5079989;28;19920;-82
2021/11/24 01:58:06;;;;;;;;;;;7.10;99.90;;;;;;5077070;28;19967;-80
2021/11/24 02:00:34;;;;;;;;;;;7.10;99.90;;;;;;5077054;28;19963;-80
2021/11/24 02:03:02;;;;;;;;;;;7.10;99.90;;;;;;5071690;28;19987;-83
2021/11/24 02:05:29;;;;;;;;;;;7.10;99.90;;;;;;5062987;28;20021;-83
2021/11/24 02:07:55;;;;;;;;;;;7.10;99.90;;;;;;5065755;28;19960;-82
2021/11/24 02:10:23;;;;;;;;;;;7.10;99.90;;;;;;5065347;28;20092;-82
2021/11/24 02:12:51;;;;;;;;;;;7.10;99.90;;;;;;5069771;28;19925;-81
2021/11/24 02:15:19;;;;;;;;;;;7.10;99.90;;;;;;5071511;28;19924;-82
2021/11/24 02:17:45;;;;;;;;;;;6.90;99.90;;;;;;5069673;28;19973;-83
2021/11/24 02:20:14;;;;;;;;;;;7.00;99.90;;;;;;5068581;28;20015;-82
2021/11/24 02:22:40;;;;;;;;;;;7.00;99.90;;;;;;5064534;28;20023;-83
2021/11/24 02:25:07;;;;;;;;;;;7.00;99.90;;;;;;5063307;28;19928;-82
2021/11/24 02:27:34;;;;;;;;;;;7.00;99.90;;;;;;5064961;28;19972;-82
2021/11/24 02:30:01;;;;;;;;;;;7.30;99.90;;;;;;5070366;28;19931;-81
2021/11/24 02:32:27;;;;;;;;;;;7.00;99.90;;;;;;5077739;28;19932;-80
2021/11/24 02:34:54;;;;;;;;;;;7.10;99.90;;;;;;5077338;28;19972;-82
2021/11/24 02:37:22;;;;;;;;;;;7.10;99.90;;;;;;5073463;28;19964;-81
2021/11/24 02:39:49;;;;;;;;;;;7.10;99.90;;;;;;5056108;28;19960;-80
2021/11/24 02:42:16;;;;;;;;;;;7.10;99.90;;;;;;5077818;28;19968;-81
2021/11/24 02:44:42;;;;;;;;;;;7.10;99.90;;;;;;5075911;28;19956;-81
2021/11/24 02:47:11;;;;;;;;;;;7.10;99.90;;;;;;5067600;28;19992;-82
2021/11/24 02:49:38;;;;;;;;;;;7.10;99.90;;;;;;5066156;28;20012;-79
2021/11/24 02:52:05;;;;;;;;;;;7.00;99.90;;;;;;5071328;28;19963;-79
2021/11/24 02:54:33;;;;;;;;;;;7.10;99.90;;;;;;5069923;28;19958;-82
2021/11/24 02:57:00;;;;;;;;;;;7.00;99.90;;;;;;5062882;28;19925;-83
2021/11/24 02:59:27;;;;;;;;;;;7.00;99.90;;;;;;5061039;28;20336;-82
2021/11/24 03:01:54;;;;;;;;;;;7.00;99.90;;;;;;5061101;28;19991;-84
2021/11/24 03:04:20;;;;;;;;;;;7.00;99.90;;;;;;5060359;28;19975;-82
2021/11/24 03:06:47;;;;;;;;;;;7.00;99.90;;;;;;5060285;28;20363;-81
2021/11/24 03:09:14;;;;;;;;;;;7.00;99.90;;;;;;5059827;28;19995;-82
2021/11/24 03:11:42;;;;;;;;;;;7.00;99.90;;;;;;5060761;28;19947;-82
2021/11/24 03:14:08;;;;;;;;;;;7.00;99.90;;;;;;5059981;28;19932;-82
2021/11/24 03:16:35;;;;;;;;;;;7.00;99.90;;;;;;5062268;28;20335;-83
2021/11/24 03:19:02;;;;;;;;;;;7.00;99.90;;;;;;5059871;28;19988;-80
2021/11/24 03:21:28;;;;;;;;;;;7.00;99.90;;;;;;5064743;28;19925;-82
2021/11/24 03:23:55;;;;;;;;;;;7.00;99.90;;;;;;5064647;28;19931;-82
2021/11/24 03:26:22;;;;;;;;;;;7.00;99.90;;;;;;5067107;28;19972;-80
2021/11/24 03:28:50;;;;;;;;;;;7.00;99.90;;;;;;5065538;28;19987;-82
2021/11/24 03:31:17;;;;;;;;;;;7.00;99.90;;;;;;5063315;28;19935;-82
2021/11/24 03:33:43;;;;;;;;;;;6.90;99.90;;;;;;5065062;28;19963;-81
2021/11/24 03:36:10;;;;;;;;;;;6.90;99.90;;;;;;5063603;28;19925;-81
2021/11/24 03:38:36;;;;;;;;;;;6.90;99.90;;;;;;5065285;28;20430;-80
2021/11/24 03:41:03;;;;;;;;;;;6.90;99.90;;;;;;5062059;28;19976;-81
2021/11/24 03:43:30;;;;;;;;;;;6.70;99.90;;;;;;5059105;28;19924;-81
2021/11/24 03:45:58;;;;;;;;;;;6.90;99.90;;;;;;5059489;28;19924;-82
2021/11/24 03:48:25;;;;;;;;;;;6.90;99.90;;;;;;5059467;28;20023;-81
2021/11/24 03:50:51;;;;;;;;;;;6.90;99.90;;;;;;5058626;28;19950;-82
2021/11/24 03:53:18;;;;;;;;;;;6.90;99.90;;;;;;5059454;28;19972;-82
2021/11/24 03:55:45;;;;;;;;;;;6.90;99.90;;;;;;5059288;28;20016;-81
2021/11/24 03:58:12;;;;;;;;;;;6.90;99.90;;;;;;5059621;28;20012;-83
2021/11/24 04:00:38;;;;;;;;;;;6.90;99.90;;;;;;5059402;28;19971;-83
2021/11/24 04:03:06;;;;;;;;;;;6.80;99.90;;;;;;5064250;28;19970;-83
2021/11/24 04:05:33;;;;;;;;;;;6.90;99.90;;;;;;5074099;28;19913;-82
2021/11/24 04:08:00;;;;;;;;;;;6.90;99.90;;;;;;5071054;28;19916;-82
2021/11/24 04:10:27;;;;;;;;;;;6.90;99.90;;;;;;5069292;28;19925;-83
2021/11/24 04:12:54;;;;;;;;;;;6.90;99.90;;;;;;5059047;28;19971;-83
2021/11/24 04:15:21;;;;;;;;;;;6.80;99.90;;;;;;5059416;28;20020;-83
2021/11/24 04:17:48;;;;;;;;;;;6.90;99.90;;;;;;5059589;28;19987;-82
2021/11/24 04:20:17;;;;;;;;;;;6.90;99.90;;;;;;5060852;28;20019;-83
2021/11/24 04:22:44;;;;;;;;;;;6.90;99.90;;;;;;5061155;28;20020;-82
2021/11/24 04:25:12;;;;;;;;;;;6.80;99.90;;;;;;5060164;28;20366;-83
2021/11/24 04:27:38;;;;;;;;;;;6.90;99.90;;;;;;5060551;28;20062;-83
2021/11/24 04:30:06;;;;;;;;;;;6.90;99.90;;;;;;5059862;28;19925;-82
2021/11/24 04:32:33;;;;;;;;;;;6.90;99.90;;;;;;5065403;28;19924;-81
2021/11/24 04:35:00;;;;;;;;;;;6.80;99.90;;;;;;5074114;28;19936;-79
2021/11/24 04:37:28;;;;;;;;;;;6.90;99.90;;;;;;5067508;28;19925;-80
2021/11/24 04:39:54;;;;;;;;;;;6.90;99.90;;;;;;5067581;28;19956;-81
2021/11/24 04:42:21;;;;;;;;;;;6.80;99.90;;;;;;5075462;28;19967;-81
2021/11/24 04:44:48;;;;;;;;;;;6.90;99.90;;;;;;5074598;28;19932;-81
2021/11/24 04:47:14;;;;;;;;;;;6.90;99.90;;;;;;5070150;28;19936;-81
2021/11/24 04:49:42;;;;;;;;;;;6.90;99.90;;;;;;5063624;28;19959;-81
2021/11/24 04:52:09;;;;;;;;;;;6.90;99.90;;;;;;5062721;28;19925;-83
2021/11/24 04:54:37;;;;;;;;;;;6.90;99.90;;;;;;5075445;28;19925;-81
2021/11/24 04:57:04;;;;;;;;;;;6.90;99.90;;;;;;5068816;28;19925;-83
2021/11/24 04:59:30;;;;;;;;;;;6.90;99.90;;;;;;5062303;28;19971;-83
2021/11/24 05:01:57;;;;;;;;;;;6.90;99.90;;;;;;5062782;28;19959;-82
2021/11/24 05:04:25;;;;;;;;;;;6.90;99.90;;;;;;5071294;28;19925;-83
2021/11/24 05:06:52;;;;;;;;;;;6.90;99.90;;;;;;5080767;28;19978;-83
2021/11/24 05:09:19;;;;;;;;;;;7.00;99.90;;;;;;5077780;28;19924;-81
2021/11/24 05:11:47;;;;;;;;;;;7.00;99.90;;;;;;5068277;28;19936;-83
2021/11/24 05:14:17;;;;;;;;;;;7.00;99.90;;;;;;5079200;28;19913;-81
2021/11/24 05:16:47;;;;;;;;;;;6.90;99.90;;;;;;5078160;28;19925;-83
2021/11/24 05:19:18;;;;;;;;;;;7.00;99.90;;;;;;5061948;28;19925;-82
2021/11/24 05:21:48;;;;;;;;;;;7.00;99.90;;;;;;5061454;28;20365;-82
2021/11/24 05:24:14;;;;;;;;;;;6.90;99.90;;;;;;5069206;28;19913;-80
2021/11/24 05:26:42;;;;;;;;;;;6.90;99.90;;;;;;5072905;28;19924;-81
2021/11/24 05:29:10;;;;;;;;;;;6.90;99.90;;;;;;5073870;28;19925;-81
2021/11/24 05:31:37;;;;;;;;;;;6.80;99.90;;;;;;5062305;28;19924;-80
2021/11/24 05:34:04;;;;;;;;;;;6.90;99.90;;;;;;5063205;28;20474;-81
2021/11/24 05:36:30;;;;;;;;;;;6.90;99.90;;;;;;5061695;28;20004;-80
2021/11/24 05:38:57;;;;;;;;;;;6.80;99.90;;;;;;5061338;28;20019;-83
2021/11/24 05:41:24;;;;;;;;;;;6.80;99.90;;;;;;5062070;28;20015;-81
2021/11/24 05:43:57;;;;;;;;;;;6.80;99.90;;;;;;5061446;28;20020;-81
2021/11/24 05:46:40;;;;;;;;;;;6.90;99.90;;;;;;5070501;28;19986;-80
2021/11/24 05:49:07;;;;;;;;;;;6.90;99.90;;;;;;5070564;28;19929;-80
2021/11/24 05:51:33;;;;;;;;;;;6.90;99.90;;;;;;5074881;28;19925;-82
2021/11/24 05:54:00;;;;;;;;;;;6.90;99.90;;;;;;5072275;28;19924;-82
2021/11/24 05:56:27;;;;;;;;;;;6.90;99.90;;;;;;5066491;28;19924;-83
2021/11/24 05:58:53;;;;;;;;;;;6.90;99.90;;;;;;5062202;28;19975;-81
2021/11/24 06:01:20;;;;;;;;;;;6.80;99.90;;;;;;5062831;28;20336;-80
2021/11/24 06:03:48;;;;;;;;;;;7.00;99.90;;;;;;5063072;28;19971;-83
2021/11/24 06:06:14;;;;;;;;;;;6.90;99.90;;;;;;5062171;28;19975;-83
2021/11/24 06:08:41;;;;;;;;;;;6.90;99.90;;;;;;5062416;28;19964;-83
2021/11/24 06:11:08;;;;;;;;;;;6.90;99.90;;;;;;5073817;28;20020;-81
2021/11/24 06:13:34;;;;;;;;;;;6.90;99.90;;;;;;5076732;28;19931;-81
2021/11/24 06:16:01;;;;;;;;;;;6.90;99.90;;;;;;5074211;28;19925;-82
2021/11/24 06:18:28;;;;;;;;;;;6.90;99.90;;;;;;5065223;28;19986;-83
2021/11/24 06:20:56;;;;;;;;;;;6.90;99.90;;;;;;5061849;28;19980;-82
2021/11/24 06:23:22;;;;;;;;;;;6.90;99.90;;;;;;5063291;28;19970;-84
2021/11/24 06:25:50;;;;;;;;;;;6.90;99.90;;;;;;5061145;28;19925;-83
2021/11/24 06:28:20;;;;;;;;;;;7.00;99.90;;;;;;5098653;22;19979;-86
2021/11/24 06:30:46;;;;;;;;;;;7.00;99.90;;;;;;5088323;28;19928;-87
2021/11/24 06:33:13;;;;;;;;;;;7.00;99.90;;;;;;5086974;28;19955;-87
2021/11/24 06:35:40;;;;;;;;;;;9.70;99.90;;;;;;5088421;28;19962;-88
2021/11/24 06:38:08;;;;;;;;;;;7.10;99.90;;;;;;5090068;28;19935;-87
2021/11/24 06:40:35;;;;;;;;;;;7.00;99.90;;;;;;5097740;28;19968;-85
2021/11/24 06:43:01;;;;;;;;;;;7.00;99.90;;;;;;5098251;28;19912;-83
2021/11/24 06:45:30;;;;;;;;;;;7.00;99.90;;;;;;5097883;28;19935;-85
2021/11/24 06:47:57;;;;;;;;;;;7.00;99.90;;;;;;5093230;28;19924;-84
2021/11/24 06:50:23;;;;;;;;;;;7.00;99.90;;;;;;5089304;28;19924;-86
2021/11/24 06:52:50;;;;;;;;;;;7.00;99.90;;;;;;5085762;28;19928;-86
2021/11/24 06:55:18;;;;;;;;;;;7.00;99.90;;;;;;5085475;28;19967;-84
2021/11/24 06:57:47;;;;;;;;;;;7.10;99.90;;;;;;5083731;28;19939;-85
2021/11/24 07:00:14;;;;;;;;;;;7.00;99.90;;;;;;5084086;28;19932;-85
2021/11/24 07:02:41;;;;;;;;;;;7.00;99.90;;;;;;5083054;28;19929;-84
2021/11/24 07:05:09;;;;;;;;;;;7.00;99.90;;;;;;5082561;28;20334;-85
2021/11/24 07:07:35;;;;;;;;;;;7.00;99.90;;;;;;5082683;28;19982;-84
2021/11/24 07:10:03;;;;;;;;;;;7.10;99.90;;;;;;5084434;28;19935;-84
2021/11/24 07:12:31;;;;;;;;;;;7.10;99.90;;;;;;5088806;28;19924;-83
2021/11/24 07:14:57;;;;;;;;;;;7.10;99.90;;;;;;5088683;28;19931;-85
2021/11/24 07:17:25;;;;;;;;;;;7.10;99.90;;;;;;5086407;28;19959;-85
2021/11/24 07:19:52;;;;;;;;;;;7.10;99.90;;;;;;5085957;28;19960;-84
2021/11/24 07:22:18;;;;;;;;;;;7.10;99.90;;;;;;5084458;28;19933;-85
2021/11/24 07:24:45;;;;;;;;;;;7.10;99.90;;;;;;5085178;28;19924;-83
2021/11/24 07:27:12;;;;;;;;;;;7.10;99.90;;;;;;5085048;28;20047;-83
2021/11/24 07:29:40;;;;;;;;;;;7.10;99.90;;;;;;5084648;28;19924;-85
2021/11/24 07:32:07;;;;;;;;;;;7.10;99.90;;;;;;5091744;28;19929;-83
2021/11/24 07:34:34;;;;;;;;;;;7.20;99.90;;;;;;5095109;28;19925;-84
2021/11/24 07:37:00;;;;;;;;;;;7.20;99.90;;;;;;5095879;28;19939;-84
2021/11/24 07:39:31;;;;;;;;;;;7.20;99.90;;;;;;5090711;28;20007;-84
2021/11/24 07:41:58;;;;;;;;;;;7.10;99.90;;;;;;5087322;28;19924;-84
2021/11/24 07:44:25;;;;;;;;;;;7.10;99.90;;;;;;5085820;28;20398;-84
2021/11/24 07:46:53;;;;;;;;;;;7.10;99.90;;;;;;5091861;28;19924;-84
2021/11/24 07:49:20;;;;;;;;;;;7.20;99.90;;;;;;5094978;28;19912;-83
2021/11/24 07:51:47;;;;;;;;;;;7.20;99.90;;;;;;5094555;28;19983;-83
2021/11/24 07:54:13;;;;;;;;;;;6.90;99.90;;;;;;5087277;28;19972;-85
2021/11/24 07:56:40;;;;;;;;;;;7.20;99.90;;;;;;5086585;28;19951;-84
2021/11/24 07:59:07;;;;;;;;;;;7.10;99.90;;;;;;5088935;28;19928;-84
2021/11/24 08:01:34;;;;;;;;;;;7.10;99.90;;;;;;5083502;28;19978;-85
2021/11/24 08:04:02;;;;;;;;;;;7.20;99.90;;;;;;5080868;28;20383;-84
2021/11/24 08:06:28;;;;;;;;;;;7.20;99.90;;;;;;5080644;28;19952;-84
2021/11/24 08:08:55;;;;;;;;;;;7.10;99.90;;;;;;5081085;28;19975;-85
2021/11/24 08:11:22;;;;;;;;;;;7.10;99.90;;;;;;5082111;28;19924;-84
2021/11/24 08:13:48;;;;;;;;;;;7.20;99.90;;;;;;5084501;28;20023;-84
2021/11/24 08:16:16;;;;;;;;;;;7.20;99.90;;;;;;5091524;28;19947;-84
2021/11/24 08:18:42;;;;;;;;;;;7.20;99.90;;;;;;5100494;28;19912;-84
2021/11/24 08:21:10;;;;;;;;;;;8.10;99.90;;;;;;5100272;28;19928;-83
2021/11/24 08:23:37;;;;;;;;;;;7.20;99.90;;;;;;5100881;28;19912;-84
2021/11/24 08:26:04;;;;;;;;;;;7.20;99.90;;;;;;5100183;28;19925;-83
2021/11/24 08:28:31;;;;;;;;;;;7.30;99.90;;;;;;5100168;28;19924;-84
2021/11/24 08:30:57;;;;;;;;;;;7.30;99.90;;;;;;5098313;28;20383;-85
2021/11/24 08:33:24;;;;;;;;;;;7.30;99.90;;;;;;5089859;28;19924;-85
2021/11/24 08:35:53;;;;;;;;;;;7.30;99.90;;;;;;5089574;28;19970;-84
2021/11/24 08:38:24;;;;;;;;;;;7.30;99.90;;;;;;5088837;28;20000;-84
2021/11/24 08:40:51;;;;;;;;;;;7.30;99.90;;;;;;5088462;28;19928;-84
2021/11/24 08:43:17;;;;;;;;;;;7.50;99.90;;;;;;5088258;28;20012;-84
2021/11/24 08:45:44;;;;;;;;;;;7.50;99.90;;;;;;5088274;28;20003;-84
2021/11/24 08:48:11;;;;;;;;;;;7.50;99.90;;;;;;5088164;28;19929;-85
2021/11/24 08:50:38;;;;;;;;;;;7.50;99.90;;;;;;5088822;28;20224;-84
2021/11/24 08:53:05;;;;;;;;;;;7.50;99.90;;;;;;5093030;28;20357;-85
2021/11/24 08:55:33;;;;;;;;;;;7.50;99.90;;;;;;5089913;28;19982;-84
2021/11/24 08:58:00;;;;;;;;;;;7.50;99.90;;;;;;5090955;28;19932;-83
2021/11/24 09:00:27;;;;;;;;;;;7.50;99.90;;;;;;5092800;28;19924;-85
2021/11/24 09:02:53;;;;;;;;;;;7.50;99.90;;;;;;5092822;28;19988;-85
2021/11/24 09:05:20;;;;;;;;;;;7.50;99.90;;;;;;5093095;28;19928;-84
2021/11/24 09:07:48;;;;;;;;;;;7.60;99.90;;;;;;5093194;28;19924;-84
2021/11/24 09:10:19;;;;;;;;;;;7.60;99.90;;;;;;5090065;28;19925;-84
2021/11/24 09:12:48;;;;;;;;;;;7.60;99.90;;;;;;5091856;28;20003;-84
2021/11/24 09:15:14;;;;;;;;;;;7.50;99.90;;;;;;5096227;28;19935;-87
2021/11/24 09:17:41;;;;;;;;;;;7.60;99.90;;;;;;5098247;28;19924;-85
2021/11/24 09:20:08;;;;;;;;;;;7.50;99.90;;;;;;5099222;28;19912;-85
2021/11/24 09:22:35;;;;;;;;;;;7.50;99.90;;;;;;5097868;28;19924;-84
2021/11/24 09:25:02;;;;;;;;;;;7.50;99.90;;;;;;5100480;28;20098;-83
2021/11/24 09:27:33;;;;;;;;;;;7.50;99.90;;;;;;5099187;28;19922;-86
2021/11/24 09:30:02;;;;;;;;;;;7.50;99.90;;;;;;5088134;28;20379;-86
2021/11/24 09:32:29;;;;;;;;;;;7.90;99.90;;;;;;5087583;28;20019;-86
2021/11/24 09:34:55;;;;;;;;;;;7.20;99.90;;;;;;5087634;28;20331;-85
2021/11/24 09:37:22;;;;;;;;;;;7.50;99.90;;;;;;5092389;28;19949;-84
2021/11/24 09:39:51;;;;;;;;;;;7.50;99.90;;;;;;5100923;28;19918;-81
2021/11/24 09:42:18;;;;;;;;;;;7.50;99.90;;;;;;5100850;28;19913;-84
2021/11/24 09:44:46;;;;;;;;;;;7.50;99.90;;;;;;5100363;28;19913;-85
2021/11/24 09:47:15;;;;;;;;;;;7.50;99.90;;;;;;5097411;28;19942;-86
2021/11/24 09:49:45;;;;;;;;;;;7.50;99.90;;;;;;5089499;28;19924;-85
2021/11/24 09:52:12;;;;;;;;;;;7.50;99.90;;;;;;5096276;28;19924;-86
2021/11/24 09:54:40;;;;;;;;;;;7.60;99.90;;;;;;5099444;28;19912;-84
2021/11/24 09:57:07;;;;;;;;;;;7.70;99.90;;;;;;5100090;28;19992;-84
2021/11/24 09:59:33;;;;;;;;;;;7.70;99.90;;;;;;5099847;28;19971;-86
2021/11/24 10:02:00;;;;;;;;;;;7.80;99.90;;;;;;5098050;28;19932;-86
2021/11/24 10:04:28;;;;;;;;;;;7.80;99.90;;;;;;5087439;28;19925;-85
2021/11/24 10:06:55;;;;;;;;;;;7.80;99.90;;;;;;5086882;28;19963;-86
2021/11/24 10:09:22;;;;;;;;;;;7.70;99.90;;;;;;5087290;28;19949;-86
2021/11/24 10:11:52;;;;;;;;;;;7.60;99.90;;;;;;5086435;28;19924;-86
2021/11/24 10:14:19;;;;;;;;;;;7.60;99.90;;;;;;5086760;28;19925;-86
2021/11/24 10:16:46;;;;;;;;;;;7.60;99.90;;;;;;5088714;28;19932;-85
2021/11/24 10:19:14;;;;;;;;;;;7.60;99.90;;;;;;5086495;28;19947;-87
2021/11/24 10:21:55;;;;;;;;;;;7.60;99.90;;;;;;5087681;28;19951;-86
2021/11/24 10:24:27;;;;;;;;;;;7.60;99.90;;;;;;5091476;28;19925;-85
2021/11/24 10:26:54;;;;;;;;;;;7.60;99.90;;;;;;5093625;28;19913;-87
2021/11/24 10:29:21;;;;;;;;;;;7.60;99.90;;;;;;5096888;28;19947;-85
2021/11/24 10:31:51;;;;;;;;;;;7.60;99.90;;;;;;5095822;28;19924;-85
2021/11/24 10:34:18;;;;;;;;;;;7.70;99.90;;;;;;5090319;28;20284;-85
2021/11/24 10:37:04;;;;;;;;;;;7.70;99.90;;;;;;5086430;28;19924;-85
2021/11/24 10:39:32;;;;;;;;;;;7.70;99.90;;;;;;5084864;28;19936;-84
2021/11/24 10:42:12;;;;;;;;;;;7.70;99.90;;;;;;5084679;28;19978;-85
2021/11/24 10:44:40;;;;;;;;;;;7.80;99.90;;;;;;5084654;28;19925;-77
2021/11/24 10:47:09;;;;;;;;;;;7.90;99.90;;;;;;5082039;28;21544;-81
2021/11/24 10:49:36;;;;;;;;;;;;;;;;;;5085736;28;19924;-81
2021/11/24 10:52:14;;;;;;;;;;;7.80;99.90;;;;;;5086977;28;19933;-81
2021/11/24 10:54:41;;;;;;;;;;;8.20;99.90;;;;;;5085130;28;20055;-81
2021/11/24 10:57:11;;;;;;;;;;;8.00;99.90;;;;;;5085361;28;19947;-81
2021/11/24 10:59:39;;;;;;;;;;;8.00;99.90;;;;;;5084368;28;19960;-81
2021/11/24 11:02:20;;;;;;;;;;;8.00;99.90;;;;;;5084259;28;19964;-81
2021/11/24 11:04:53;;;;;;;;;;;8.30;99.90;;;;;;5090321;28;19912;-81
2021/11/24 11:07:22;;;;;;;;;;;8.30;99.90;;;;;;5092099;28;19932;-80
2021/11/24 11:09:48;;;;;;;;;;;8.00;99.90;;;;;;5088319;28;19943;-81
2021/11/24 11:12:15;;;;;;;;;;;8.00;99.90;;;;;;5084784;28;19929;-82
2021/11/24 11:14:42;;;;;;;;;;;8.10;99.90;;;;;;5084317;28;19946;-81
2021/11/24 11:17:09;;;;;;;;;;;7.30;99.90;;;;;;5085718;28;19931;-81
2021/11/24 11:19:39;;;;;;;;;;;8.20;99.90;;;;;;5087689;28;19947;-81
2021/11/24 11:22:07;;;;;;;;;;;8.60;99.90;;;;;;5093114;28;19975;-81
2021/11/24 11:24:34;;;;;;;;;;;;;;;;;;5091028;28;19924;-81
2021/11/24 11:27:00;;;;;;;;;;;;;;;;;;5087142;28;19931;-82
2021/11/24 11:29:27;;;;;;;;;;;;;;;;;;5084461;28;19925;-80
2021/11/24 11:31:54;;;;;;;;;;;;;;;;;;5085175;28;20019;-80
2021/11/24 11:34:21;;;;;;;;;;;;;;;;;;5084860;28;20426;-80
2021/11/24 11:36:50;;;;;;;;;;;8.30;99.90;;;;;;5084814;28;19925;-80
2021/11/24 11:39:17;;;;;;;;;;;8.20;99.90;;;;;;5085807;28;19973;-80
2021/11/24 11:41:44;;;;;;;;;;;8.20;99.90;;;;;;5084966;28;19984;-80
2021/11/24 11:44:13;;;;;;;;;;;8.20;99.90;;;;;;5083059;28;19928;-79
2021/11/24 11:46:42;;;;;;;;;;;8.10;99.90;;;;;;5082870;28;20280;-79
2021/11/24 11:49:09;;;;;;;;;;;8.10;99.90;;;;;;5083104;28;19925;-80
2021/11/24 11:51:37;;;;;;;;;;;8.00;99.90;;;;;;5083234;28;19925;-80
2021/11/24 11:54:06;;;;;;;;;;;8.00;99.90;;;;;;5083205;28;19932;-80
2021/11/24 11:56:34;;;;;;;;;;;8.00;99.90;;;;;;5084384;28;19967;-77
2021/11/24 11:59:02;;;;;;;;;;;8.00;99.90;;;;;;5089904;28;19935;-79
2021/11/24 12:01:30;;;;;;;;;;;8.10;99.90;;;;;;5090889;28;19924;-79
2021/11/24 12:03:58;;;;;;;;;;;8.10;99.90;;;;;;5083643;28;19971;-80
2021/11/24 12:06:26;;;;;;;;;;;8.00;99.90;;;;;;5083646;28;19924;-80
2021/11/24 12:09:14;;;;;;;;;;;8.10;99.90;;;;;;5084864;28;20300;-80
2021/11/24 12:12:00;;;;;;;;;;;8.00;99.90;;;;;;5089540;28;19935;-79
2021/11/24 12:14:46;;;;;;;;;;;8.10;99.90;;;;;;5091333;28;19951;-80
2021/11/24 12:17:32;;;;;;;;;;;8.10;99.90;;;;;;5088614;28;19955;-81
2021/11/24 12:19:59;;;;;;;;;;;8.00;99.90;;;;;;5082448;28;19951;-80
2021/11/24 12:22:44;;;;;;;;;;;8.00;99.90;;;;;;5081430;28;19998;-79
2021/11/24 12:25:36;;;;;;;;;;;8.10;99.90;;;;;;5086315;28;19959;-80
2021/11/24 12:28:06;;;;;;;;;;;;;;;;;;5118456;22;19991;-78
2021/11/24 12:31:07;;;;;;;;;;;8.00;99.90;;;;;;5089937;28;19924;-79
2021/11/24 12:33:35;;;;;;;;;;;8.00;99.90;;;;;;5094209;28;19934;-81
2021/11/24 12:36:03;;;;;;;;;;;8.00;99.90;;;;;;5093984;28;19980;-79
2021/11/24 12:38:31;;;;;;;;;;;8.00;99.90;;;;;;5088809;28;20438;-83
2021/11/24 12:41:01;;;;;;;;;;;8.10;99.90;;;;;;5086226;28;20008;-79
2021/11/24 12:43:29;;;;;;;;;;;8.10;99.90;;;;;;5088733;28;19924;-82
2021/11/24 12:46:00;;;;;;;;;;;8.00;99.90;;;;;;5086775;28;19974;-81
2021/11/24 12:48:30;;;;;;;;;;;8.10;99.90;;;;;;5088481;28;19928;-83
2021/11/24 12:50:57;;;;;;;;;;;8.10;99.90;;;;;;5088113;28;19924;-82
2021/11/24 12:53:24;;;;;;;;;;;8.10;99.90;;;;;;5087957;28;19929;-83
2021/11/24 12:56:03;;;;;;;;;;;8.20;99.90;;;;;;5089704;28;20268;-82
2021/11/24 12:58:31;;;;;;;;;;;8.30;99.90;;;;;;5086318;28;19967;-81
2021/11/24 13:01:04;;;;;;;;;;;8.30;99.90;;;;;;5084923;28;19925;-84
2021/11/24 13:03:31;;;;;;;;;;;8.30;99.90;;;;;;5086848;28;19925;-81
2021/11/24 13:05:59;;;;;;;;;;;8.30;99.90;;;;;;5088292;28;19925;-81
2021/11/24 13:08:25;;;;;;;;;;;8.40;99.90;;;;;;5087865;28;19924;-82
2021/11/24 13:11:00;;;;;;;;;;;8.40;99.90;;;;;;5088094;28;20348;-82
2021/11/24 13:13:27;;;;;;;;;;;8.40;99.90;;;;;;5088926;28;19925;-80
2021/11/24 13:15:55;;;;;;;;;;;8.40;99.90;;;;;;5085857;28;19924;-84
2021/11/24 13:18:22;;;;;;;;;;;8.30;99.90;;;;;;5087069;28;19925;-82
2021/11/24 13:20:49;;;;;;;;;;;8.30;99.90;;;;;;5087615;28;19932;-81
2021/11/24 13:23:16;;;;;;;;;;;8.30;99.90;;;;;;5086759;28;20302;-80
2021/11/24 13:25:43;;;;;;;;;;;8.10;99.90;;;;;;5088568;28;19985;-82
2021/11/24 13:28:10;;;;;;;;;;;8.30;99.90;;;;;;5088070;28;19924;-82
2021/11/24 13:30:38;;;;;;;;;;;8.50;99.90;;;;;;5088362;28;19924;-82
2021/11/24 13:33:08;;;;;;;;;;;8.30;99.90;;;;;;5089478;28;19988;-81
2021/11/24 13:35:35;;;;;;;;;;;8.30;99.90;;;;;;5090019;28;19928;-83
2021/11/24 13:38:03;;;;;;;;;;;8.30;99.90;;;;;;5090604;28;19974;-82
2021/11/24 13:40:31;;;;;;;;;;;8.30;99.90;;;;;;5088693;28;19947;-84
2021/11/24 13:42:58;;;;;;;;;;;8.30;99.90;;;;;;5088890;28;19924;-81
2021/11/24 13:45:30;;;;;;;;;;;8.30;99.90;;;;;;5087226;28;20322;-81
2021/11/24 13:48:08;;;;;;;;;;;8.30;99.90;;;;;;5088396;28;19925;-81
2021/11/24 13:50:35;;;;;;;;;;;8.20;99.90;;;;;;5089833;28;19924;-82
2021/11/24 13:53:17;;;;;;;;;;;8.20;99.90;;;;;;5089095;28;19924;-83
2021/11/24 13:55:46;;;;;;;;;;;8.20;99.90;;;;;;5090302;28;19932;-83
2021/11/24 13:58:13;;;;;;;;;;;8.30;99.90;;;;;;5087811;28;19931;-81
2021/11/24 14:00:39;;;;;;;;;;;8.30;99.90;;;;;;5086573;28;19962;-82
2021/11/24 14:03:06;;;;;;;;;;;8.30;99.90;;;;;;5088699;28;19959;-81
2021/11/24 14:05:36;;;;;;;;;;;8.20;99.90;;;;;;5090579;28;19935;-81
2021/11/24 14:08:16;;;;;;;;;;;8.20;99.90;;;;;;5089829;28;19925;-82
2021/11/24 14:10:43;;;;;;;;;;;8.20;99.90;;;;;;5092178;28;19931;-79
2021/11/24 14:13:12;;;;;;;;;;;8.10;99.90;;;;;;5075955;28;19964;-81
2021/11/24 14:15:39;;;;;;;;;;;8.20;99.90;;;;;;5092396;28;19924;-81
2021/11/24 14:18:09;;;;;;;;;;;8.20;99.90;;;;;;5093035;28;19959;-81
2021/11/24 14:20:37;;;;;;;;;;;8.10;99.90;;;;;;5093357;28;19924;-81
2021/11/24 14:23:05;;;;;;;;;;;8.10;99.90;;;;;;5092536;28;19925;-80
2021/11/24 14:25:33;;;;;;;;;;;8.90;99.90;;;;;;5093867;28;19947;-82
2021/11/24 14:28:01;;;;;;;;;;;8.00;99.90;;;;;;5093060;28;19909;-81
2021/11/24 14:30:29;;;;;;;;;;;8.00;99.90;;;;;;5086044;28;20379;-81
2021/11/24 14:32:56;;;;;;;;;;;7.90;99.90;;;;;;5090539;28;19946;-80
2021/11/24 14:35:24;;;;;;;;;;;7.90;99.90;;;;;;5088736;28;20291;-81
2021/11/24 14:37:53;;;;;;;;;;;7.30;99.90;;;;;;5085557;28;19963;-81